sensor_id;sensor_type;location;lat;lon;timestamp;temperature;humidity
9847;DHT22;68671;50.084;8.794;2024-01-30T00:00:27;12.30;99.90
9847;DHT22;68671;50.084;8.794;2024-01-30T00:02:54;12.20;99.90
9847;DHT22;68671;50.084;8.794;2024-01-30T00:05:21;12.20;99.90
9847;DHT22;68671;50.084;8.794;2024-01-30T00:07:48;12.20;99.90
9847;DHT22;68671;50.084;8.794;2024-01-30T00:10:15;12.10;99.90
9847;DHT22;68671;50.084;8.794;2024-01-30T00:12:42;12.10;99.90
9847;DHT22;68671;50.084;8.794;2024-01-30T00:15:10;12.00;99.90
9847;DHT22;68671;50.084;8.794;2024-01-30T00:17:37;11.90;99.90
9847;DHT22;68671;50.084;8.794;2024-01-30T00:20:05;12.00;99.90
9847;DHT22;68671;50.084;8.794;2024-01-30T00:22:34;11.90;99.90
9847;DHT22;68671;50.084;8.794;2024-01-30T00:25:01;11.80;99.90
9847;DHT22;68671;50.084;8.794;2024-01-30T00:27:28;11.80;99.90
9847;DHT22;68671;50.084;8.794;2024-01-30T00:29:55;11.80;99.90
9847;DHT22;68671;50.084;8.794;2024-01-30T00:32:23;11.70;99.90
9847;DHT22;68671;50.084;8.794;2024-01-30T00:34:50;11.70;99.90
9847;DHT22;68671;50.084;8.794;2024-01-30T00:37:17;11.70;99.90
9847;DHT22;68671;50.084;8.794;2024-01-30T00:39:44;11.70;99.90
9847;DHT22;68671;50.084;8.794;2024-01-30T00:42:11;11.70;99.90
9847;DHT22;68671;50.084;8.794;2024-01-30T00:44:38;11.70;99.90
9847;DHT22;68671;50.084;8.794;2024-01-30T00:47:05;11.60;99.90
9847;DHT22;68671;50.084;8.794;2024-01-30T00:49:33;11.70;99.90
9847;DHT22;68671;50.084;8.794;2024-01-30T00:52:00;11.70;99.90
9847;DHT22;68671;50.084;8.794;2024-01-30T00:54:27;11.60;99.90
9847;DHT22;68671;50.084;8.794;2024-01-30T00:56:54;11.60;99.90
9847;DHT22;68671;50.084;8.794;2024-01-30T00:59:22;11.60;99.90
9847;DHT22;68671;50.084;8.794;2024-01-30T01:01:49;11.50;99.90
9847;DHT22;68671;50.084;8.794;2024-01-30T01:04:16;11.50;99.90
9847;DHT22;68671;50.084;8.794;2024-01-30T01:06:45;11.50;99.90
9847;DHT22;68671;50.084;8.794;2024-01-30T01:09:12;11.40;99.90
9847;DHT22;68671;50.084;8.794;2024-01-30T01:11:39;11.40;99.90
9847;DHT22;68671;50.084;8.794;2024-01-30T01:14:06;11.40;99.90
9847;DHT22;68671;50.084;8.794;2024-01-30T01:16:34;11.50;99.90
9847;DHT22;68671;50.084;8.794;2024-01-30T01:19:01;11.60;99.90
9847;DHT22;68671;50.084;8.794;2024-01-30T01:21:29;11.50;99.90
9847;DHT22;68671;50.084;8.794;2024-01-30T01:23:59;11.50;99.90
9847;DHT22;68671;50.084;8.794;2024-01-30T01:26:26;11.50;99.90
9847;DHT22;68671;50.084;8.794;2024-01-30T01:28:53;11.40;99.90
9847;DHT22;68671;50.084;8.794;2024-01-30T01:31:22;11.40;99.90
9847;DHT22;68671;50.084;8.794;2024-01-30T01:33:50;11.40;99.90
9847;DHT22;68671;50.084;8.794;2024-01-30T01:36:17;11.40;99.90
9847;DHT22;68671;50.084;8.794;2024-01-30T01:38:44;11.50;99.90
9847;DHT22;68671;50.084;8.794;2024-01-30T01:41:12;11.40;99.90
9847;DHT22;68671;50.084;8.794;2024-01-30T01:43:39;11.40;99.90
9847;DHT22;68671;50.084;8.794;2024-01-30T01:46:06;11.30;99.90
9847;DHT22;68671;50.084;8.794;2024-01-30T01:48:33;11.30;99.90
9847;DHT22;68671;50.084;8.794;2024-01-30T01:51:00;11.30;99.90
9847;DHT22;68671;50.084;8.794;2024-01-30T01:53:28;11.30;99.90
9847;DHT22;68671;50.084;8.794;2024-01-30T01:55:55;11.30;99.90
9847;DHT22;68671;50.084;8.794;2024-01-30T01:58:27;11.20;99.90
9847;DHT22;68671;50.084;8.794;2024-01-30T02:00:56;11.20;99.90
9847;DHT22;68671;50.084;8.794;2024-01-30T02:03:23;11.20;99.90
9847;DHT22;68671;50.084;8.794;2024-01-30T02:05:51;11.20;99.90
9847;DHT22;68671;50.084;8.794;2024-01-30T02:08:18;11.20;99.90
9847;DHT22;68671;50.084;8.794;2024-01-30T02:10:45;11.20;99.90
9847;DHT22;68671;50.084;8.794;2024-01-30T02:13:12;11.20;99.90
9847;DHT22;68671;50.084;8.794;2024-01-30T02:15:40;11.20;99.90
9847;DHT22;68671;50.084;8.794;2024-01-30T02:18:07;11.20;99.90
9847;DHT22;68671;50.084;8.794;2024-01-30T02:20:35;11.30;99.90
9847;DHT22;68671;50.084;8.794;2024-01-30T02:23:07;11.20;99.90
9847;DHT22;68671;50.084;8.794;2024-01-30T02:25:38;11.20;99.90
9847;DHT22;68671;50.084;8.794;2024-01-30T02:28:09;11.20;99.90
9847;DHT22;68671;50.084;8.794;2024-01-30T02:30:36;11.20;99.90
9847;DHT22;68671;50.084;8.794;2024-01-30T02:33:03;11.20;99.90
9847;DHT22;68671;50.084;8.794;2024-01-30T02:35:30;11.20;99.90
9847;DHT22;68671;50.084;8.794;2024-01-30T02:37:57;11.20;99.90
9847;DHT22;68671;50.084;8.794;2024-01-30T02:40:26;11.20;99.90
9847;DHT22;68671;50.084;8.794;2024-01-30T02:42:52;11.20;99.90
9847;DHT22;68671;50.084;8.794;2024-01-30T02:45:19;11.20;99.90
9847;DHT22;68671;50.084;8.794;2024-01-30T02:47:46;11.20;99.90
9847;DHT22;68671;50.084;8.794;2024-01-30T02:50:13;11.20;99.90
9847;DHT22;68671;50.084;8.794;2024-01-30T02:52:41;11.20;99.90
9847;DHT22;68671;50.084;8.794;2024-01-30T02:55:09;11.30;99.90
9847;DHT22;68671;50.084;8.794;2024-01-30T02:57:37;11.30;99.90
9847;DHT22;68671;50.084;8.794;2024-01-30T03:00:05;11.30;99.90
9847;DHT22;68671;50.084;8.794;2024-01-30T03:02:35;11.30;99.90
9847;DHT22;68671;50.084;8.794;2024-01-30T03:05:02;11.30;99.90
9847;DHT22;68671;50.084;8.794;2024-01-30T03:07:29;11.30;99.90
9847;DHT22;68671;50.084;8.794;2024-01-30T03:09:56;11.30;99.90
9847;DHT22;68671;50.084;8.794;2024-01-30T03:12:22;11.20;99.90
9847;DHT22;68671;50.084;8.794;2024-01-30T03:14:51;11.20;99.90
9847;DHT22;68671;50.084;8.794;2024-01-30T03:17:18;11.20;99.90
9847;DHT22;68671;50.084;8.794;2024-01-30T03:19:45;11.20;99.90
9847;DHT22;68671;50.084;8.794;2024-01-30T03:22:12;11.20;99.90
9847;DHT22;68671;50.084;8.794;2024-01-30T03:24:39;11.20;99.90
9847;DHT22;68671;50.084;8.794;2024-01-30T03:27:06;11.20;99.90
9847;DHT22;68671;50.084;8.794;2024-01-30T03:29:33;11.30;99.90
9847;DHT22;68671;50.084;8.794;2024-01-30T03:32:01;11.40;99.90
9847;DHT22;68671;50.084;8.794;2024-01-30T03:34:29;11.40;99.90
9847;DHT22;68671;50.084;8.794;2024-01-30T03:36:56;11.50;99.90
9847;DHT22;68671;50.084;8.794;2024-01-30T03:39:23;11.50;99.90
9847;DHT22;68671;50.084;8.794;2024-01-30T03:41:50;11.50;99.90
9847;DHT22;68671;50.084;8.794;2024-01-30T03:44:17;11.60;99.90
9847;DHT22;68671;50.084;8.794;2024-01-30T03:46:44;11.60;99.90
9847;DHT22;68671;50.084;8.794;2024-01-30T03:49:12;11.60;99.90
9847;DHT22;68671;50.084;8.794;2024-01-30T03:51:39;11.70;99.90
9847;DHT22;68671;50.084;8.794;2024-01-30T03:54:06;11.80;99.90
9847;DHT22;68671;50.084;8.794;2024-01-30T03:56:33;11.70;99.90
9847;DHT22;68671;50.084;8.794;2024-01-30T03:59:00;11.80;99.90
9847;DHT22;68671;50.084;8.794;2024-01-30T04:01:28;11.80;99.90
9847;DHT22;68671;50.084;8.794;2024-01-30T04:03:55;11.80;99.90
9847;DHT22;68671;50.084;8.794;2024-01-30T04:06:23;11.90;99.90
9847;DHT22;68671;50.084;8.794;2024-01-30T04:08:50;11.80;99.90
9847;DHT22;68671;50.084;8.794;2024-01-30T04:11:18;11.90;99.90
9847;DHT22;68671;50.084;8.794;2024-01-30T04:13:45;11.80;99.90
9847;DHT22;68671;50.084;8.794;2024-01-30T04:16:19;11.90;99.90
9847;DHT22;68671;50.084;8.794;2024-01-30T04:18:47;11.90;99.90
9847;DHT22;68671;50.084;8.794;2024-01-30T04:21:14;11.90;99.90
9847;DHT22;68671;50.084;8.794;2024-01-30T04:23:43;12.00;99.90
9847;DHT22;68671;50.084;8.794;2024-01-30T04:26:10;12.00;99.90
9847;DHT22;68671;50.084;8.794;2024-01-30T04:28:37;12.00;99.90
9847;DHT22;68671;50.084;8.794;2024-01-30T04:31:04;12.00;99.90
9847;DHT22;68671;50.084;8.794;2024-01-30T04:33:31;11.90;99.90
9847;DHT22;68671;50.084;8.794;2024-01-30T04:35:58;11.90;99.90
9847;DHT22;68671;50.084;8.794;2024-01-30T04:38:27;12.00;99.90
9847;DHT22;68671;50.084;8.794;2024-01-30T04:40:56;12.00;99.90
9847;DHT22;68671;50.084;8.794;2024-01-30T04:43:23;11.90;99.90
9847;DHT22;68671;50.084;8.794;2024-01-30T04:45:51;11.90;99.90
9847;DHT22;68671;50.084;8.794;2024-01-30T04:48:18;12.00;99.90
9847;DHT22;68671;50.084;8.794;2024-01-30T04:50:45;11.90;99.90
9847;DHT22;68671;50.084;8.794;2024-01-30T04:53:12;12.00;99.90
9847;DHT22;68671;50.084;8.794;2024-01-30T04:55:39;12.00;99.90
9847;DHT22;68671;50.084;8.794;2024-01-30T04:58:07;12.10;99.90
9847;DHT22;68671;50.084;8.794;2024-01-30T05:00:34;12.00;99.90
9847;DHT22;68671;50.084;8.794;2024-01-30T05:03:01;12.10;99.90
9847;DHT22;68671;50.084;8.794;2024-01-30T05:05:28;12.10;99.90
9847;DHT22;68671;50.084;8.794;2024-01-30T05:07:55;12.10;99.90
9847;DHT22;68671;50.084;8.794;2024-01-30T05:10:22;12.10;99.90
9847;DHT22;68671;50.084;8.794;2024-01-30T05:12:49;12.10;99.90
9847;DHT22;68671;50.084;8.794;2024-01-30T05:15:19;12.10;99.90
9847;DHT22;68671;50.084;8.794;2024-01-30T05:17:46;12.20;99.90
9847;DHT22;68671;50.084;8.794;2024-01-30T05:20:13;12.20;99.90
9847;DHT22;68671;50.084;8.794;2024-01-30T05:22:40;12.20;99.90
9847;DHT22;68671;50.084;8.794;2024-01-30T05:25:10;12.10;99.90
9847;DHT22;68671;50.084;8.794;2024-01-30T05:27:37;12.10;99.90
9847;DHT22;68671;50.084;8.794;2024-01-30T05:30:05;12.20;99.90
9847;DHT22;68671;50.084;8.794;2024-01-30T05:32:34;12.20;99.90
9847;DHT22;68671;50.084;8.794;2024-01-30T05:35:01;12.20;99.90
9847;DHT22;68671;50.084;8.794;2024-01-30T05:37:28;12.20;99.90
9847;DHT22;68671;50.084;8.794;2024-01-30T05:39:56;12.20;99.90
9847;DHT22;68671;50.084;8.794;2024-01-30T05:42:23;12.20;99.90
9847;DHT22;68671;50.084;8.794;2024-01-30T05:44:50;12.20;99.90
9847;DHT22;68671;50.084;8.794;2024-01-30T05:47:17;12.20;99.90
9847;DHT22;68671;50.084;8.794;2024-01-30T05:49:45;12.30;99.90
9847;DHT22;68671;50.084;8.794;2024-01-30T05:52:12;12.30;99.90
9847;DHT22;68671;50.084;8.794;2024-01-30T05:54:40;12.20;99.90
9847;DHT22;68671;50.084;8.794;2024-01-30T05:57:07;12.20;99.90
9847;DHT22;68671;50.084;8.794;2024-01-30T05:59:34;12.20;99.90
9847;DHT22;68671;50.084;8.794;2024-01-30T06:02:01;12.10;99.90
9847;DHT22;68671;50.084;8.794;2024-01-30T06:04:28;12.20;99.90
9847;DHT22;68671;50.084;8.794;2024-01-30T06:06:57;12.20;99.90
9847;DHT22;68671;50.084;8.794;2024-01-30T06:09:27;12.20;99.90
9847;DHT22;68671;50.084;8.794;2024-01-30T06:11:54;12.20;99.90
9847;DHT22;68671;50.084;8.794;2024-01-30T06:14:21;12.20;99.90
9847;DHT22;68671;50.084;8.794;2024-01-30T06:16:48;12.10;99.90
9847;DHT22;68671;50.084;8.794;2024-01-30T06:19:15;12.10;99.90
9847;DHT22;68671;50.084;8.794;2024-01-30T06:21:42;12.10;99.90
9847;DHT22;68671;50.084;8.794;2024-01-30T06:24:10;12.10;99.90
9847;DHT22;68671;50.084;8.794;2024-01-30T06:26:37;12.20;99.90
9847;DHT22;68671;50.084;8.794;2024-01-30T06:29:04;12.20;99.90
9847;DHT22;68671;50.084;8.794;2024-01-30T06:31:31;12.20;99.90
9847;DHT22;68671;50.084;8.794;2024-01-30T06:33:58;12.30;99.90
9847;DHT22;68671;50.084;8.794;2024-01-30T06:36:25;12.20;99.90
9847;DHT22;68671;50.084;8.794;2024-01-30T06:38:52;12.20;99.90
9847;DHT22;68671;50.084;8.794;2024-01-30T06:41:21;12.20;99.90
9847;DHT22;68671;50.084;8.794;2024-01-30T06:43:48;12.30;99.90
9847;DHT22;68671;50.084;8.794;2024-01-30T06:46:15;12.30;99.90
9847;DHT22;68671;50.084;8.794;2024-01-30T06:48:42;12.40;99.90
9847;DHT22;68671;50.084;8.794;2024-01-30T06:51:10;12.40;99.90
9847;DHT22;68671;50.084;8.794;2024-01-30T06:53:37;12.40;99.90
9847;DHT22;68671;50.084;8.794;2024-01-30T06:56:05;12.40;99.90
9847;DHT22;68671;50.084;8.794;2024-01-30T06:58:34;12.40;99.90
9847;DHT22;68671;50.084;8.794;2024-01-30T07:01:00;12.40;99.90
9847;DHT22;68671;50.084;8.794;2024-01-30T07:03:27;12.50;99.90
9847;DHT22;68671;50.084;8.794;2024-01-30T07:05:55;12.50;99.90
9847;DHT22;68671;50.084;8.794;2024-01-30T07:08:22;12.50;99.90
9847;DHT22;68671;50.084;8.794;2024-01-30T07:10:49;12.50;99.90
9847;DHT22;68671;50.084;8.794;2024-01-30T07:13:15;12.50;99.90
9847;DHT22;68671;50.084;8.794;2024-01-30T07:15:44;12.50;99.90
9847;DHT22;68671;50.084;8.794;2024-01-30T07:18:14;12.60;99.90
9847;DHT22;68671;50.084;8.794;2024-01-30T07:20:41;12.50;99.90
9847;DHT22;68671;50.084;8.794;2024-01-30T07:23:11;12.60;99.90
9847;DHT22;68671;50.084;8.794;2024-01-30T07:25:39;12.60;99.90
9847;DHT22;68671;50.084;8.794;2024-01-30T07:28:07;12.70;99.90
9847;DHT22;68671;50.084;8.794;2024-01-30T07:30:35;12.70;99.90
9847;DHT22;68671;50.084;8.794;2024-01-30T07:33:03;12.80;99.90
9847;DHT22;68671;50.084;8.794;2024-01-30T07:35:30;12.80;99.90
9847;DHT22;68671;50.084;8.794;2024-01-30T07:37:57;12.90;99.90
9847;DHT22;68671;50.084;8.794;2024-01-30T07:40:24;12.90;99.90
9847;DHT22;68671;50.084;8.794;2024-01-30T07:42:54;12.90;99.90
9847;DHT22;68671;50.084;8.794;2024-01-30T07:45:21;12.90;99.90
9847;DHT22;68671;50.084;8.794;2024-01-30T07:47:49;12.90;99.90
9847;DHT22;68671;50.084;8.794;2024-01-30T07:50:19;12.80;99.90
9847;DHT22;68671;50.084;8.794;2024-01-30T07:52:46;12.80;99.90
9847;DHT22;68671;50.084;8.794;2024-01-30T07:55:16;12.80;99.90
9847;DHT22;68671;50.084;8.794;2024-01-30T08:01:27;12.90;99.90
9847;DHT22;68671;50.084;8.794;2024-01-30T08:03:54;13.00;99.90
9847;DHT22;68671;50.084;8.794;2024-01-30T08:06:22;13.00;99.90
9847;DHT22;68671;50.084;8.794;2024-01-30T08:08:49;13.10;99.90
9847;DHT22;68671;50.084;8.794;2024-01-30T08:11:22;13.10;99.90
9847;DHT22;68671;50.084;8.794;2024-01-30T08:13:52;13.20;99.90
9847;DHT22;68671;50.084;8.794;2024-01-30T08:16:21;13.20;99.90
9847;DHT22;68671;50.084;8.794;2024-01-30T08:18:50;13.30;99.90
9847;DHT22;68671;50.084;8.794;2024-01-30T08:21:23;13.40;99.90
9847;DHT22;68671;50.084;8.794;2024-01-30T08:23:51;13.40;99.90
9847;DHT22;68671;50.084;8.794;2024-01-30T08:26:18;13.30;99.90
9847;DHT22;68671;50.084;8.794;2024-01-30T08:28:45;13.30;99.90
9847;DHT22;68671;50.084;8.794;2024-01-30T08:31:12;13.30;99.90
9847;DHT22;68671;50.084;8.794;2024-01-30T08:33:39;13.30;99.90
9847;DHT22;68671;50.084;8.794;2024-01-30T08:36:06;13.30;99.90
9847;DHT22;68671;50.084;8.794;2024-01-30T08:38:34;13.30;99.90
9847;DHT22;68671;50.084;8.794;2024-01-30T08:41:01;13.40;99.90
9847;DHT22;68671;50.084;8.794;2024-01-30T08:43:29;13.40;99.90
9847;DHT22;68671;50.084;8.794;2024-01-30T08:45:58;13.40;99.90
9847;DHT22;68671;50.084;8.794;2024-01-30T08:48:25;13.50;99.90
9847;DHT22;68671;50.084;8.794;2024-01-30T08:50:52;13.50;99.90
9847;DHT22;68671;50.084;8.794;2024-01-30T08:53:19;13.50;99.90
9847;DHT22;68671;50.084;8.794;2024-01-30T08:55:47;13.60;99.90
9847;DHT22;68671;50.084;8.794;2024-01-30T08:58:14;13.60;99.90
9847;DHT22;68671;50.084;8.794;2024-01-30T09:00:43;13.70;99.90
9847;DHT22;68671;50.084;8.794;2024-01-30T09:03:10;13.60;99.90
9847;DHT22;68671;50.084;8.794;2024-01-30T09:05:37;13.70;99.90
9847;DHT22;68671;50.084;8.794;2024-01-30T09:08:04;13.70;99.90
9847;DHT22;68671;50.084;8.794;2024-01-30T09:10:31;13.70;99.90
9847;DHT22;68671;50.084;8.794;2024-01-30T09:13:00;13.80;99.90
9847;DHT22;68671;50.084;8.794;2024-01-30T09:15:27;13.80;99.90
9847;DHT22;68671;50.084;8.794;2024-01-30T09:17:53;13.80;99.90
9847;DHT22;68671;50.084;8.794;2024-01-30T09:20:23;13.90;99.90
9847;DHT22;68671;50.084;8.794;2024-01-30T09:22:50;13.90;99.90
9847;DHT22;68671;50.084;8.794;2024-01-30T09:25:17;13.90;99.90
9847;DHT22;68671;50.084;8.794;2024-01-30T09:27:48;14.00;99.90
9847;DHT22;68671;50.084;8.794;2024-01-30T09:30:17;14.00;99.90
9847;DHT22;68671;50.084;8.794;2024-01-30T09:32:43;14.00;99.90
9847;DHT22;68671;50.084;8.794;2024-01-30T09:35:10;14.00;99.90
9847;DHT22;68671;50.084;8.794;2024-01-30T09:37:37;14.10;99.90
9847;DHT22;68671;50.084;8.794;2024-01-30T09:40:06;14.10;99.90
9847;DHT22;68671;50.084;8.794;2024-01-30T09:42:34;14.20;99.90
9847;DHT22;68671;50.084;8.794;2024-01-30T09:45:02;14.20;99.90
9847;DHT22;68671;50.084;8.794;2024-01-30T09:47:32;14.30;99.90
9847;DHT22;68671;50.084;8.794;2024-01-30T09:50:04;14.30;99.90
9847;DHT22;68671;50.084;8.794;2024-01-30T09:52:31;14.40;99.90
9847;DHT22;68671;50.084;8.794;2024-01-30T09:54:59;14.40;99.90
9847;DHT22;68671;50.084;8.794;2024-01-30T09:57:26;14.40;99.90
9847;DHT22;68671;50.084;8.794;2024-01-30T09:59:53;14.40;99.90
9847;DHT22;68671;50.084;8.794;2024-01-30T10:02:23;14.40;99.90
9847;DHT22;68671;50.084;8.794;2024-01-30T10:04:52;14.50;99.90
9847;DHT22;68671;50.084;8.794;2024-01-30T10:07:19;14.50;99.90
9847;DHT22;68671;50.084;8.794;2024-01-30T10:09:46;14.50;99.90
9847;DHT22;68671;50.084;8.794;2024-01-30T10:12:15;14.60;99.90
9847;DHT22;68671;50.084;8.794;2024-01-30T10:14:42;14.60;99.90
9847;DHT22;68671;50.084;8.794;2024-01-30T10:17:10;14.70;99.90
9847;DHT22;68671;50.084;8.794;2024-01-30T10:19:37;14.80;99.90
9847;DHT22;68671;50.084;8.794;2024-01-30T10:22:06;14.80;99.90
9847;DHT22;68671;50.084;8.794;2024-01-30T10:24:33;14.80;99.90
9847;DHT22;68671;50.084;8.794;2024-01-30T10:27:00;14.80;99.90
9847;DHT22;68671;50.084;8.794;2024-01-30T10:29:27;14.90;99.90
9847;DHT22;68671;50.084;8.794;2024-01-30T10:31:58;14.90;99.90
9847;DHT22;68671;50.084;8.794;2024-01-30T10:34:26;15.00;99.90
9847;DHT22;68671;50.084;8.794;2024-01-30T10:37:01;15.00;99.90
9847;DHT22;68671;50.084;8.794;2024-01-30T10:39:39;15.10;99.90
9847;DHT22;68671;50.084;8.794;2024-01-30T10:42:07;15.10;99.90
9847;DHT22;68671;50.084;8.794;2024-01-30T10:44:44;15.20;99.90
9847;DHT22;68671;50.084;8.794;2024-01-30T10:47:16;15.20;99.90
9847;DHT22;68671;50.084;8.794;2024-01-30T10:49:45;15.30;99.90
9847;DHT22;68671;50.084;8.794;2024-01-30T10:52:13;15.30;99.90
9847;DHT22;68671;50.084;8.794;2024-01-30T10:54:46;15.40;99.90
9847;DHT22;68671;50.084;8.794;2024-01-30T10:57:15;15.50;99.90
9847;DHT22;68671;50.084;8.794;2024-01-30T10:59:43;15.50;99.90
9847;DHT22;68671;50.084;8.794;2024-01-30T11:02:11;15.60;99.90
9847;DHT22;68671;50.084;8.794;2024-01-30T11:04:41;15.60;99.90
9847;DHT22;68671;50.084;8.794;2024-01-30T11:07:15;15.70;99.90
9847;DHT22;68671;50.084;8.794;2024-01-30T11:09:53;15.70;99.90
9847;DHT22;68671;50.084;8.794;2024-01-30T11:12:24;15.70;99.90
9847;DHT22;68671;50.084;8.794;2024-01-30T11:15:04;15.70;99.90
9847;DHT22;68671;50.084;8.794;2024-01-30T11:17:45;15.80;99.90
9847;DHT22;68671;50.084;8.794;2024-01-30T11:20:52;15.80;99.90
9847;DHT22;68671;50.084;8.794;2024-01-30T11:23:18;15.80;99.90
9847;DHT22;68671;50.084;8.794;2024-01-30T11:25:48;15.90;99.90
9847;DHT22;68671;50.084;8.794;2024-01-30T11:28:18;15.90;99.90
9847;DHT22;68671;50.084;8.794;2024-01-30T11:30:47;15.90;99.90
9847;DHT22;68671;50.084;8.794;2024-01-30T11:33:27;16.00;99.90
9847;DHT22;68671;50.084;8.794;2024-01-30T11:35:57;16.00;99.90
9847;DHT22;68671;50.084;8.794;2024-01-30T11:38:25;16.00;99.90
9847;DHT22;68671;50.084;8.794;2024-01-30T11:40:54;16.00;99.90
9847;DHT22;68671;50.084;8.794;2024-01-30T11:43:25;16.00;99.90
9847;DHT22;68671;50.084;8.794;2024-01-30T11:46:23;16.10;99.90
9847;DHT22;68671;50.084;8.794;2024-01-30T11:49:13;16.10;99.90
9847;DHT22;68671;50.084;8.794;2024-01-30T11:52:29;16.10;99.90
9847;DHT22;68671;50.084;8.794;2024-01-30T11:55:40;16.10;99.90
9847;DHT22;68671;50.084;8.794;2024-01-30T11:58:20;16.10;99.90
9847;DHT22;68671;50.084;8.794;2024-01-30T12:00:55;16.10;99.90
9847;DHT22;68671;50.084;8.794;2024-01-30T12:03:23;16.00;99.90
9847;DHT22;68671;50.084;8.794;2024-01-30T12:05:56;16.00;99.90
9847;DHT22;68671;50.084;8.794;2024-01-30T12:08:23;16.00;99.90
9847;DHT22;68671;50.084;8.794;2024-01-30T12:10:55;15.90;99.90
9847;DHT22;68671;50.084;8.794;2024-01-30T12:13:27;15.90;99.90
9847;DHT22;68671;50.084;8.794;2024-01-30T12:15:54;15.90;99.90
9847;DHT22;68671;50.084;8.794;2024-01-30T12:18:21;15.80;99.90
9847;DHT22;68671;50.084;8.794;2024-01-30T12:20:57;15.90;99.90
9847;DHT22;68671;50.084;8.794;2024-01-30T12:23:24;15.90;99.90
9847;DHT22;68671;50.084;8.794;2024-01-30T12:25:52;15.90;99.90
9847;DHT22;68671;50.084;8.794;2024-01-30T12:28:19;15.90;99.90
9847;DHT22;68671;50.084;8.794;2024-01-30T12:30:48;15.90;99.90
9847;DHT22;68671;50.084;8.794;2024-01-30T12:33:18;16.00;99.90
9847;DHT22;68671;50.084;8.794;2024-01-30T12:35:46;16.00;99.90
9847;DHT22;68671;50.084;8.794;2024-01-30T12:38:15;16.00;99.90
9847;DHT22;68671;50.084;8.794;2024-01-30T12:40:42;16.00;99.90
9847;DHT22;68671;50.084;8.794;2024-01-30T12:43:10;16.10;99.90
9847;DHT22;68671;50.084;8.794;2024-01-30T12:45:37;16.10;99.90
9847;DHT22;68671;50.084;8.794;2024-01-30T12:48:06;16.10;99.90
9847;DHT22;68671;50.084;8.794;2024-01-30T12:50:33;16.10;99.90
9847;DHT22;68671;50.084;8.794;2024-01-30T12:53:00;16.10;99.90
9847;DHT22;68671;50.084;8.794;2024-01-30T12:55:31;16.10;99.90
9847;DHT22;68671;50.084;8.794;2024-01-30T12:58:01;16.20;99.90
9847;DHT22;68671;50.084;8.794;2024-01-30T13:00:28;16.10;99.90
9847;DHT22;68671;50.084;8.794;2024-01-30T13:02:55;16.10;99.90
9847;DHT22;68671;50.084;8.794;2024-01-30T13:05:26;16.10;99.90
9847;DHT22;68671;50.084;8.794;2024-01-30T13:07:55;16.20;99.90
9847;DHT22;68671;50.084;8.794;2024-01-30T13:10:25;16.10;99.90
9847;DHT22;68671;50.084;8.794;2024-01-30T13:12:58;16.10;99.90
9847;DHT22;68671;50.084;8.794;2024-01-30T13:15:25;16.10;99.90
9847;DHT22;68671;50.084;8.794;2024-01-30T13:17:52;16.10;99.90
9847;DHT22;68671;50.084;8.794;2024-01-30T13:20:20;16.10;99.90
9847;DHT22;68671;50.084;8.794;2024-01-30T13:22:49;16.10;99.90
9847;DHT22;68671;50.084;8.794;2024-01-30T13:25:16;16.10;99.90
9847;DHT22;68671;50.084;8.794;2024-01-30T13:27:43;16.10;99.90
9847;DHT22;68671;50.084;8.794;2024-01-30T13:30:10;16.10;99.90
9847;DHT22;68671;50.084;8.794;2024-01-30T13:32:40;16.10;99.90
9847;DHT22;68671;50.084;8.794;2024-01-30T13:35:13;16.10;99.90
9847;DHT22;68671;50.084;8.794;2024-01-30T13:37:46;16.10;99.90
9847;DHT22;68671;50.084;8.794;2024-01-30T13:40:16;16.00;99.90
9847;DHT22;68671;50.084;8.794;2024-01-30T13:42:43;16.00;99.90
9847;DHT22;68671;50.084;8.794;2024-01-30T13:45:10;16.00;99.90
9847;DHT22;68671;50.084;8.794;2024-01-30T13:47:37;16.10;99.90
9847;DHT22;68671;50.084;8.794;2024-01-30T13:50:04;16.00;99.90
9847;DHT22;68671;50.084;8.794;2024-01-30T13:52:31;16.00;99.90
9847;DHT22;68671;50.084;8.794;2024-01-30T13:54:58;16.00;99.90
9847;DHT22;68671;50.084;8.794;2024-01-30T13:57:27;16.00;99.90
9847;DHT22;68671;50.084;8.794;2024-01-30T13:59:54;15.90;99.90
9847;DHT22;68671;50.084;8.794;2024-01-30T14:02:20;15.90;99.90
9847;DHT22;68671;50.084;8.794;2024-01-30T14:04:48;15.90;99.90
9847;DHT22;68671;50.084;8.794;2024-01-30T14:07:14;15.90;99.90
9847;DHT22;68671;50.084;8.794;2024-01-30T14:09:43;15.80;99.90
9847;DHT22;68671;50.084;8.794;2024-01-30T14:12:11;15.80;99.90
9847;DHT22;68671;50.084;8.794;2024-01-30T14:14:39;15.80;99.90
9847;DHT22;68671;50.084;8.794;2024-01-30T14:17:06;15.90;99.90
9847;DHT22;68671;50.084;8.794;2024-01-30T14:19:34;15.90;99.90
9847;DHT22;68671;50.084;8.794;2024-01-30T14:22:01;15.90;99.90
9847;DHT22;68671;50.084;8.794;2024-01-30T14:24:28;16.00;99.90
9847;DHT22;68671;50.084;8.794;2024-01-30T14:26:55;16.00;99.90
9847;DHT22;68671;50.084;8.794;2024-01-30T14:29:22;16.00;99.90
9847;DHT22;68671;50.084;8.794;2024-01-30T14:31:51;16.00;99.90
9847;DHT22;68671;50.084;8.794;2024-01-30T14:34:18;16.00;99.90
9847;DHT22;68671;50.084;8.794;2024-01-30T14:36:45;16.00;99.90
9847;DHT22;68671;50.084;8.794;2024-01-30T14:39:11;16.10;99.90
9847;DHT22;68671;50.084;8.794;2024-01-30T14:41:38;16.00;99.90
9847;DHT22;68671;50.084;8.794;2024-01-30T14:44:05;16.00;99.90
9847;DHT22;68671;50.084;8.794;2024-01-30T14:46:34;15.90;99.90
9847;DHT22;68671;50.084;8.794;2024-01-30T14:49:03;15.90;99.90
9847;DHT22;68671;50.084;8.794;2024-01-30T14:51:31;15.80;99.90
9847;DHT22;68671;50.084;8.794;2024-01-30T14:53:59;15.80;99.90
9847;DHT22;68671;50.084;8.794;2024-01-30T14:56:26;15.80;99.90
9847;DHT22;68671;50.084;8.794;2024-01-30T14:58:53;15.80;99.90
9847;DHT22;68671;50.084;8.794;2024-01-30T15:01:21;15.80;99.90
9847;DHT22;68671;50.084;8.794;2024-01-30T15:03:48;15.80;99.90
9847;DHT22;68671;50.084;8.794;2024-01-30T15:06:18;15.80;99.90
9847;DHT22;68671;50.084;8.794;2024-01-30T15:08:48;15.80;99.90
9847;DHT22;68671;50.084;8.794;2024-01-30T15:11:15;15.80;99.90
9847;DHT22;68671;50.084;8.794;2024-01-30T15:13:42;15.80;99.90
9847;DHT22;68671;50.084;8.794;2024-01-30T15:16:09;15.80;99.90
9847;DHT22;68671;50.084;8.794;2024-01-30T15:18:36;15.70;99.90
9847;DHT22;68671;50.084;8.794;2024-01-30T15:21:03;15.70;99.90
9847;DHT22;68671;50.084;8.794;2024-01-30T15:23:32;15.70;99.90
9847;DHT22;68671;50.084;8.794;2024-01-30T15:25:59;15.60;99.90
9847;DHT22;68671;50.084;8.794;2024-01-30T15:28:34;15.50;99.90
9847;DHT22;68671;50.084;8.794;2024-01-30T15:31:03;15.50;99.90
9847;DHT22;68671;50.084;8.794;2024-01-30T15:33:30;15.50;99.90
9847;DHT22;68671;50.084;8.794;2024-01-30T15:35:57;15.40;99.90
9847;DHT22;68671;50.084;8.794;2024-01-30T15:38:24;15.40;99.90
9847;DHT22;68671;50.084;8.794;2024-01-30T15:40:53;15.40;99.90
9847;DHT22;68671;50.084;8.794;2024-01-30T15:43:20;15.40;99.90
9847;DHT22;68671;50.084;8.794;2024-01-30T15:45:48;15.40;99.90
9847;DHT22;68671;50.084;8.794;2024-01-30T15:48:15;15.40;99.90
9847;DHT22;68671;50.084;8.794;2024-01-30T15:50:41;15.40;99.90
9847;DHT22;68671;50.084;8.794;2024-01-30T15:53:08;15.30;99.90
9847;DHT22;68671;50.084;8.794;2024-01-30T15:55:35;15.20;99.90